sensor_id;sensor_type;location;lat;lon;timestamp;P1;durP1;ratioP1;P2;durP2;ratioP2
30337;SDS011;17143;51.888;5.408;2022-09-09T00:01:52;1.30;;;1.20;;
30337;SDS011;17143;51.888;5.408;2022-09-09T00:17:01;2.10;;;1.70;;
30337;SDS011;17143;51.888;5.408;2022-09-09T00:32:11;2.17;;;0.90;;
30337;SDS011;17143;51.888;5.408;2022-09-09T00:47:20;1.97;;;0.97;;
30337;SDS011;17143;51.888;5.408;2022-09-09T01:02:39;1.60;;;1.20;;
30337;SDS011;17143;51.888;5.408;2022-09-09T01:17:50;2.70;;;1.20;;
30337;SDS011;17143;51.888;5.408;2022-09-09T01:33:00;3.10;;;1.13;;
30337;SDS011;17143;51.888;5.408;2022-09-09T01:48:03;1.40;;;1.23;;
30337;SDS011;17143;51.888;5.408;2022-09-09T02:03:21;2.80;;;1.90;;
30337;SDS011;17143;51.888;5.408;2022-09-09T02:18:37;7.33;;;4.07;;
30337;SDS011;17143;51.888;5.408;2022-09-09T02:33:46;2.93;;;2.57;;
30337;SDS011;17143;51.888;5.408;2022-09-09T02:48:55;5.13;;;3.20;;
30337;SDS011;17143;51.888;5.408;2022-09-09T03:04:05;4.73;;;3.20;;
30337;SDS011;17143;51.888;5.408;2022-09-09T03:19:07;4.53;;;3.70;;
30337;SDS011;17143;51.888;5.408;2022-09-09T03:34:10;6.90;;;4.03;;
30337;SDS011;17143;51.888;5.408;2022-09-09T03:49:12;5.80;;;4.47;;
30337;SDS011;17143;51.888;5.408;2022-09-09T04:04:14;3.20;;;2.40;;
30337;SDS011;17143;51.888;5.408;2022-09-09T04:19:16;7.50;;;2.73;;
30337;SDS011;17143;51.888;5.408;2022-09-09T04:34:19;12.47;;;5.00;;
30337;SDS011;17143;51.888;5.408;2022-09-09T04:49:21;8.27;;;3.30;;
30337;SDS011;17143;51.888;5.408;2022-09-09T05:04:24;4.27;;;2.10;;
30337;SDS011;17143;51.888;5.408;2022-09-09T05:19:26;3.07;;;1.30;;
30337;SDS011;17143;51.888;5.408;2022-09-09T05:34:30;5.00;;;1.63;;
30337;SDS011;17143;51.888;5.408;2022-09-09T05:49:32;7.07;;;1.73;;
30337;SDS011;17143;51.888;5.408;2022-09-09T06:04:35;4.90;;;1.40;;
30337;SDS011;17143;51.888;5.408;2022-09-09T06:19:38;5.83;;;1.20;;
30337;SDS011;17143;51.888;5.408;2022-09-09T06:34:40;5.93;;;1.23;;
30337;SDS011;17143;51.888;5.408;2022-09-09T06:49:42;3.37;;;1.03;;
30337;SDS011;17143;51.888;5.408;2022-09-09T07:04:45;6.23;;;1.70;;
30337;SDS011;17143;51.888;5.408;2022-09-09T07:19:47;5.40;;;1.50;;
30337;SDS011;17143;51.888;5.408;2022-09-09T07:34:51;8.43;;;1.13;;
30337;SDS011;17143;51.888;5.408;2022-09-09T07:49:53;5.57;;;1.30;;
30337;SDS011;17143;51.888;5.408;2022-09-09T08:05:01;4.93;;;1.40;;
30337;SDS011;17143;51.888;5.408;2022-09-09T08:20:04;10.13;;;1.60;;
30337;SDS011;17143;51.888;5.408;2022-09-09T08:35:07;10.03;;;1.70;;
30337;SDS011;17143;51.888;5.408;2022-09-09T08:50:16;7.47;;;1.47;;
30337;SDS011;17143;51.888;5.408;2022-09-09T09:05:25;6.67;;;1.43;;
30337;SDS011;17143;51.888;5.408;2022-09-09T09:20:37;6.43;;;1.30;;
30337;SDS011;17143;51.888;5.408;2022-09-09T09:35:49;7.83;;;1.53;;
30337;SDS011;17143;51.888;5.408;2022-09-09T09:50:52;5.37;;;1.40;;
30337;SDS011;17143;51.888;5.408;2022-09-09T10:05:56;8.77;;;1.60;;
30337;SDS011;17143;51.888;5.408;2022-09-09T10:21:00;5.80;;;1.47;;
30337;SDS011;17143;51.888;5.408;2022-09-09T10:36:09;4.67;;;1.70;;
30337;SDS011;17143;51.888;5.408;2022-09-09T10:51:25;3.33;;;1.77;;
30337;SDS011;17143;51.888;5.408;2022-09-09T11:06:34;3.63;;;1.80;;
30337;SDS011;17143;51.888;5.408;2022-09-09T11:21:42;7.97;;;1.80;;
30337;SDS011;17143;51.888;5.408;2022-09-09T11:36:59;6.97;;;2.13;;
30337;SDS011;17143;51.888;5.408;2022-09-09T11:52:12;4.67;;;1.47;;
30337;SDS011;17143;51.888;5.408;2022-09-09T12:07:29;3.97;;;1.30;;
30337;SDS011;17143;51.888;5.408;2022-09-09T12:22:37;4.23;;;1.30;;
30337;SDS011;17143;51.888;5.408;2022-09-09T12:37:49;5.07;;;1.40;;
30337;SDS011;17143;51.888;5.408;2022-09-09T12:52:54;5.87;;;1.37;;
30337;SDS011;17143;51.888;5.408;2022-09-09T13:08:02;3.57;;;1.10;;
30337;SDS011;17143;51.888;5.408;2022-09-09T13:23:05;2.40;;;1.40;;
30337;SDS011;17143;51.888;5.408;2022-09-09T13:38:12;3.27;;;1.30;;
30337;SDS011;17143;51.888;5.408;2022-09-09T13:53:15;4.17;;;1.43;;
30337;SDS011;17143;51.888;5.408;2022-09-09T14:08:22;4.40;;;1.47;;
30337;SDS011;17143;51.888;5.408;2022-09-09T14:23:26;3.93;;;1.40;;
30337;SDS011;17143;51.888;5.408;2022-09-09T14:38:29;6.50;;;1.70;;
30337;SDS011;17143;51.888;5.408;2022-09-09T14:53:32;5.80;;;1.27;;
30337;SDS011;17143;51.888;5.408;2022-09-09T15:08:35;4.77;;;1.47;;
30337;SDS011;17143;51.888;5.408;2022-09-09T15:23:37;3.40;;;1.43;;
30337;SDS011;17143;51.888;5.408;2022-09-09T15:38:40;2.00;;;0.83;;
30337;SDS011;17143;51.888;5.408;2022-09-09T15:53:42;3.47;;;1.30;;
30337;SDS011;17143;51.888;5.408;2022-09-09T16:08:44;2.57;;;0.97;;
30337;SDS011;17143;51.888;5.408;2022-09-09T16:23:47;3.87;;;1.40;;
30337;SDS011;17143;51.888;5.408;2022-09-09T16:38:52;2.53;;;1.30;;
30337;SDS011;17143;51.888;5.408;2022-09-09T16:53:57;1.23;;;1.00;;
30337;SDS011;17143;51.888;5.408;2022-09-09T17:09:01;1.23;;;0.90;;
30337;SDS011;17143;51.888;5.408;2022-09-09T17:24:04;1.73;;;0.93;;
30337;SDS011;17143;51.888;5.408;2022-09-09T17:39:06;3.97;;;1.03;;
30337;SDS011;17143;51.888;5.408;2022-09-09T17:54:09;3.90;;;1.23;;
30337;SDS011;17143;51.888;5.408;2022-09-09T18:09:13;2.27;;;1.50;;
30337;SDS011;17143;51.888;5.408;2022-09-09T18:24:18;5.73;;;2.20;;
30337;SDS011;17143;51.888;5.408;2022-09-09T18:39:21;2.80;;;2.13;;
30337;SDS011;17143;51.888;5.408;2022-09-09T18:54:25;3.73;;;2.00;;
30337;SDS011;17143;51.888;5.408;2022-09-09T19:09:30;3.83;;;2.20;;
30337;SDS011;17143;51.888;5.408;2022-09-09T19:24:33;4.33;;;2.47;;
30337;SDS011;17143;51.888;5.408;2022-09-09T19:39:35;4.13;;;2.53;;
30337;SDS011;17143;51.888;5.408;2022-09-09T19:54:37;5.03;;;3.00;;
30337;SDS011;17143;51.888;5.408;2022-09-09T20:09:39;5.97;;;3.27;;
30337;SDS011;17143;51.888;5.408;2022-09-09T20:24:41;6.23;;;3.57;;
30337;SDS011;17143;51.888;5.408;2022-09-09T20:39:43;4.57;;;3.50;;
30337;SDS011;17143;51.888;5.408;2022-09-09T20:54:45;5.37;;;3.43;;
30337;SDS011;17143;51.888;5.408;2022-09-09T21:09:47;4.70;;;3.40;;
30337;SDS011;17143;51.888;5.408;2022-09-09T21:24:49;7.30;;;4.40;;
30337;SDS011;17143;51.888;5.408;2022-09-09T21:39:51;5.23;;;4.13;;
30337;SDS011;17143;51.888;5.408;2022-09-09T21:54:52;6.27;;;4.10;;
30337;SDS011;17143;51.888;5.408;2022-09-09T22:09:54;5.53;;;4.20;;
30337;SDS011;17143;51.888;5.408;2022-09-09T22:24:56;6.27;;;2.83;;
30337;SDS011;17143;51.888;5.408;2022-09-09T22:39:58;6.37;;;2.27;;
30337;SDS011;17143;51.888;5.408;2022-09-09T22:55:00;4.33;;;1.83;;
30337;SDS011;17143;51.888;5.408;2022-09-09T23:10:03;3.80;;;1.90;;
30337;SDS011;17143;51.888;5.408;2022-09-09T23:25:06;4.67;;;1.50;;
30337;SDS011;17143;51.888;5.408;2022-09-09T23:40:08;6.30;;;1.57;;
30337;SDS011;17143;51.888;5.408;2022-09-09T23:55:10;7.23;;;2.13;;
